Date,TemperatureHighF,TemperatureAvgF,TemperatureLowF,DewpointHighF,DewpointAvgF,DewpointLowF,HumidityHigh,HumidityAvg,HumidityLow,PressureMaxIn,PressureMinIn,WindSpeedMaxMPH,WindSpeedAvgMPH,GustSpeedMaxMPH,PrecipitationSumIn
2013-12-1,41,32,22,-100,-100,-100,0,0,100,0.00,40.00,0,-999,0,0.00
2013-12-2,37,31,25,-100,-100,-100,0,0,100,0.00,40.00,0,-999,0,0.00
2013-12-3,44,39,31,-100,-100,-100,0,0,100,0.00,40.00,0,-999,0,0.00
2013-12-4,51,45,35,-100,-100,-100,0,0,100,0.00,40.00,0,-999,0,0.00
2013-12-5,39,26,20,-100,-100,-100,0,0,100,0.00,40.00,0,-999,0,0.00
2013-12-6,13,13,13,-100,-100,-100,0,0,100,0.00,40.00,0,-999,0,0.00
2013-12-7,13,8,2,-100,-100,-100,0,0,100,0.00,40.00,0,-999,0,0.00
2013-12-8,20,17,11,-100,-100,-100,0,0,100,0.00,40.00,0,-999,0,0.00
2013-12-9,18,15,13,-100,-100,-100,0,0,100,0.00,40.00,0,-999,0,0.00
2013-12-10,18,15,7,-100,-100,-100,0,0,100,0.00,40.00,0,-999,0,0.00
2013-12-11,14,10,4,-100,-100,-100,0,0,100,0.00,40.00,0,-999,0,0.00
2013-12-12,13,13,13,-100,-100,-100,0,0,100,0.00,40.00,0,-999,0,0.00
2013-12-13,31,24,11,-100,-100,-100,0,0,100,0.00,40.00,0,-999,0,0.00
2013-12-14,25,24,22,-100,-100,-100,0,0,100,0.00,40.00,0,-999,0,0.00
2013-12-16,14,13,7,-100,-100,-100,0,0,100,0.00,40.00,0,-999,0,0.00
2013-12-17,22,16,13,-100,-100,-100,0,0,100,0.00,40.00,0,-999,0,0.00
2013-12-18,27,14,2,-100,-100,-100,0,0,100,0.00,40.00,0,-999,0,0.00
2013-12-19,33,32,29,-100,-100,-100,0,0,100,0.00,40.00,0,-999,0,0.00
2013-12-20,48,44,35,-100,-100,-100,0,0,100,0.00,40.00,0,-999,0,0.00
2013-12-21,27,26,25,-100,-100,-100,0,0,100,0.00,40.00,0,-999,0,0.00
2013-12-22,29,26,22,-100,-100,-100,0,0,100,0.00,40.00,0,-999,0,0.00
2013-12-29,29,27,23,-100,-100,-100,0,0,100,0.00,40.00,0,-999,0,0.00
2013-12-30,11,8,4,-100,-100,-100,0,0,100,0.00,40.00,0,-999,0,0.00
2013-12-31,20,14,5,-100,-100,-100,0,0,100,0.00,40.00,0,-999,0,0.00